Time;durP1;ratioP1;P1;durP2;ratioP2;P2;SDS_P1;SDS_P2;PMS_P1;PMS_P2;Temp;Humidity;BMP_temperature;BMP_pressure;BME280_temperature;BME280_humidity;BME280_pressure;Samples;Min_cycle;Max_cycle;Signal;HPM_P1;HPM_P2
2022/01/30 00:02:05;;;;;;;26.08;5.43;;;7.50;95.40;;;;;;5070868;28;20424;-57
2022/01/30 00:04:31;;;;;;;27.30;5.15;;;7.50;95.30;;;;;;5070481;28;20070;-57
2022/01/30 00:06:56;;;;;;;24.50;4.28;;;7.50;95.30;;;;;;5070941;28;20056;-57
2022/01/30 00:09:23;;;;;;;18.33;4.65;;;7.50;95.20;;;;;;5070621;28;20064;-57
2022/01/30 00:11:59;;;;;;;18.63;3.53;;;7.40;95.20;;;;;;5063367;28;20032;-57
2022/01/30 00:14:28;;;;;;;20.73;4.50;;;7.40;95.20;;;;;;5068056;28;20020;-57
2022/01/30 00:17:02;;;;;;;22.08;3.45;;;7.40;95.20;;;;;;5070631;28;20500;-57
2022/01/30 00:20:05;;;;;;;21.17;4.60;;;7.30;95.20;;;;;;5070686;28;20028;-57
2022/01/30 00:22:42;;;;;;;21.80;4.20;;;7.30;95.20;;;;;;5068312;28;20082;-57
2022/01/30 00:25:15;;;;;;;21.98;4.72;;;7.30;95.20;;;;;;5064357;28;20051;-57
2022/01/30 00:28:00;;;;;;;14.70;3.45;;;7.30;95.30;;;;;;5066473;28;20055;-57
2022/01/30 00:30:26;;;;;;;16.92;3.78;;;7.30;95.30;;;;;;5070272;28;20025;-57
2022/01/30 00:32:52;;;;;;;20.95;4.10;;;7.20;95.30;;;;;;5069027;28;20443;-58
2022/01/30 00:35:17;;;;;;;19.65;3.83;;;7.20;95.30;;;;;;5067752;28;20482;-57
2022/01/30 00:37:48;;;;;;;17.65;3.65;;;7.20;95.30;;;;;;5070260;28;20099;-57
2022/01/30 00:40:13;;;;;;;13.45;2.83;;;7.20;95.20;;;;;;5067410;28;20495;-57
2022/01/30 00:42:38;;;;;;;18.88;3.58;;;7.10;95.20;;;;;;5067228;28;20036;-57
2022/01/30 00:45:05;;;;;;;14.45;2.67;;;7.10;95.20;;;;;;5064271;28;20067;-57
2022/01/30 00:47:30;;;;;;;20.92;3.88;;;7.10;95.20;;;;;;5067214;28;20035;-57
2022/01/30 00:49:57;;;;;;;26.85;3.88;;;7.10;95.20;;;;;;5070034;28;20021;-57
2022/01/30 00:52:23;;;;;;;20.60;3.67;;;7.00;95.10;;;;;;5067087;28;20427;-57
2022/01/30 00:54:48;;;;;;;11.43;2.85;;;7.10;95.10;;;;;;5069597;28;20064;-57
2022/01/30 00:57:14;;;;;;;21.55;3.30;;;7.00;95.10;;;;;;5069699;28;20063;-57
2022/01/30 00:59:39;;;;;;;24.65;4.13;;;7.00;95.10;;;;;;5066941;28;20066;-57
2022/01/30 01:02:05;;;;;;;19.70;3.88;;;6.90;95.10;;;;;;5067351;28;20373;-57
2022/01/30 01:04:30;;;;;;;21.27;4.10;;;7.00;95.40;;;;;;5069468;28;20128;-58
2022/01/30 01:06:56;;;;;;;19.38;4.35;;;6.90;95.10;;;;;;5068225;28;20472;-57
2022/01/30 01:09:27;;;;;;;23.77;5.03;;;6.90;95.10;;;;;;5066633;28;20395;-57
2022/01/30 01:12:27;;;;;;;20.38;3.63;;;6.80;95.00;;;;;;5066847;28;20044;-57
2022/01/30 01:25:38;;;;;;;22.05;4.00;;;6.70;94.60;;;;;;5069243;28;20106;-57
2022/01/30 01:28:04;;;;;;;18.73;3.40;;;6.70;94.70;;;;;;5066635;28;20028;-57
2022/01/30 01:30:29;;;;;;;24.67;3.45;;;6.70;94.70;;;;;;5067541;28;20059;-57
2022/01/30 01:32:54;;;;;;;19.50;4.80;;;6.70;94.70;;;;;;5065069;28;20051;-57
2022/01/30 01:35:20;;;;;;;16.88;3.67;;;6.70;94.80;;;;;;5069184;28;20027;-57
2022/01/30 01:37:52;;;;;;;15.63;3.17;;;6.70;94.80;;;;;;5066499;28;20017;-57
2022/01/30 01:40:17;;;;;;;22.63;4.00;;;6.70;94.80;;;;;;5067320;28;20031;-57
2022/01/30 01:42:44;;;;;;;17.70;3.95;;;6.60;94.80;;;;;;5069024;28;20028;-57
2022/01/30 01:45:10;;;;;;;21.50;3.50;;;6.60;94.90;;;;;;5068647;28;20060;-57
2022/01/30 01:47:35;;;;;;;23.67;5.07;;;6.60;94.90;;;;;;5069210;28;20059;-57
2022/01/30 01:50:01;;;;;;;18.38;3.40;;;6.50;94.90;;;;;;5062197;28;20103;-57
2022/01/30 01:52:27;;;;;;;16.05;3.88;;;6.50;94.90;;;;;;5065822;28;20021;-57
2022/01/30 01:54:55;;;;;;;20.80;4.20;;;6.50;94.90;;;;;;5066991;28;20017;-57
2022/01/30 01:57:22;;;;;;;24.02;3.88;;;6.50;95.00;;;;;;5069142;28;20016;-57
2022/01/30 01:59:48;;;;;;;20.52;3.22;;;6.50;95.30;;;;;;5067285;28;20032;-57
2022/01/30 02:02:14;;;;;;;19.00;3.55;;;6.50;95.10;;;;;;5066014;28;20070;-57
2022/01/30 02:04:41;;;;;;;25.10;5.35;;;6.40;95.10;;;;;;5068760;28;20162;-57
2022/01/30 02:09:48;;;;;;;18.63;4.35;;;6.40;95.10;;;;;;5068632;28;20032;-57
2022/01/30 02:12:19;;;;;;;18.50;3.40;;;6.40;95.20;;;;;;5068607;28;20400;-57
2022/01/30 02:15:06;;;;;;;21.30;4.13;;;6.40;95.20;;;;;;5068455;28;20459;-57
2022/01/30 02:25:49;;;;;;;21.10;3.33;;;6.20;95.40;;;;;;5066107;28;20546;-57
2022/01/30 02:28:17;;;;;;;22.60;3.65;;;6.20;95.50;;;;;;5065645;28;20037;-57
2022/01/30 02:30:53;;;;;;;18.63;3.35;;;6.20;95.50;;;;;;5072678;28;20024;-57
2022/01/30 02:33:22;;;;;;;19.67;3.78;;;6.20;95.50;;;;;;5070319;28;20031;-57
2022/01/30 02:35:47;;;;;;;17.33;3.47;;;6.20;95.60;;;;;;5072854;28;20021;-57
2022/01/30 02:38:15;;;;;;;22.52;3.15;;;6.20;95.60;;;;;;5072579;28;20035;-57
2022/01/30 02:40:43;;;;;;;21.85;4.10;;;6.10;95.70;;;;;;5069809;28;20025;-57
2022/01/30 02:43:08;;;;;;;21.60;3.80;;;6.10;95.70;;;;;;5066919;28;20413;-57
2022/01/30 02:45:37;;;;;;;29.02;3.58;;;6.10;95.80;;;;;;5070641;28;20480;-57
2022/01/30 02:53:30;;;;;;;18.10;3.28;;;6.10;96.00;;;;;;5048433;28;20519;-57
2022/01/30 02:55:57;;;;;;;26.95;3.40;;;6.10;96.20;;;;;;5070178;28;20024;-57
2022/01/30 02:58:23;;;;;;;27.52;5.80;;;6.00;96.20;;;;;;5066456;28;20540;-57
2022/01/30 03:00:48;;;;;;;21.42;3.83;;;6.00;96.30;;;;;;5068853;28;20543;-58
2022/01/30 03:03:14;;;;;;;20.40;4.03;;;6.00;96.40;;;;;;5067920;28;20607;-57
2022/01/30 03:05:39;;;;;;;16.38;3.03;;;6.00;96.50;;;;;;5071835;28;20047;-57
2022/01/30 03:08:05;;;;;;;24.98;4.10;;;5.90;96.50;;;;;;5071904;28;20111;-57
2022/01/30 03:10:31;;;;;;;17.52;3.30;;;6.00;96.70;;;;;;5071631;28;20108;-57
2022/01/30 03:12:56;;;;;;;16.10;2.78;;;5.90;96.60;;;;;;5071613;28;20396;-57
2022/01/30 03:15:22;;;;;;;16.15;2.55;;;5.90;96.60;;;;;;5068774;28;20078;-57
2022/01/30 03:17:47;;;;;;;17.13;3.53;;;5.90;96.70;;;;;;5071748;28;20020;-57
2022/01/30 03:20:13;;;;;;;13.52;2.47;;;5.90;96.70;;;;;;5068214;28;20075;-57
2022/01/30 03:22:40;;;;;;;15.52;2.88;;;5.90;96.60;;;;;;5069699;28;20385;-57
2022/01/30 03:25:06;;;;;;;11.88;2.10;;;5.90;96.60;;;;;;5068938;28;20033;-57
2022/01/30 03:27:31;;;;;;;15.65;2.00;;;6.00;96.60;;;;;;5070955;28;20134;-57
2022/01/30 03:30:13;;;;;;;20.42;2.92;;;6.00;96.70;;;;;;5066787;28;20491;-57
2022/01/30 03:32:39;;;;;;;19.85;2.60;;;6.00;96.60;;;;;;5067667;28;20024;-57
2022/01/30 03:35:04;;;;;;;16.20;3.40;;;6.00;96.60;;;;;;5068624;28;20391;-57
2022/01/30 03:37:30;;;;;;;12.35;1.98;;;6.10;96.70;;;;;;5071453;28;20035;-57
2022/01/30 03:39:55;;;;;;;19.65;2.95;;;6.10;96.70;;;;;;5070819;28;20028;-57
2022/01/30 03:42:21;;;;;;;15.10;3.15;;;6.10;96.70;;;;;;5071154;28;20039;-57
2022/01/30 03:44:47;;;;;;;17.65;4.20;;;6.00;96.60;;;;;;5069810;28;20120;-57
2022/01/30 03:47:12;;;;;;;17.63;2.92;;;6.00;96.60;;;;;;5068054;28;20032;-57
2022/01/30 03:49:39;;;;;;;12.43;2.30;;;6.00;96.70;;;;;;5071193;28;20032;-57
2022/01/30 03:52:05;;;;;;;21.38;2.60;;;6.00;96.70;;;;;;5071504;28;20437;-57
2022/01/30 03:54:32;;;;;;;19.08;3.20;;;6.00;96.70;;;;;;5065044;28;20075;-57
2022/01/30 03:56:58;;;;;;;16.63;2.25;;;6.00;96.70;;;;;;5069098;28;20046;-60
2022/01/30 03:59:24;;;;;;;14.23;2.40;;;6.00;96.70;;;;;;5071096;28;20024;-57
2022/01/30 04:01:49;;;;;;;13.40;2.10;;;6.00;96.70;;;;;;5070374;28;20447;-57
2022/01/30 04:04:15;;;;;;;12.30;2.55;;;6.00;96.80;;;;;;5070815;28;20032;-57
2022/01/30 04:06:41;;;;;;;14.57;2.80;;;5.90;96.70;;;;;;5070920;28;20066;-57
2022/01/30 04:09:07;;;;;;;18.02;2.72;;;5.90;96.70;;;;;;5069533;28;20032;-57
2022/01/30 04:11:32;;;;;;;25.08;2.83;;;5.90;96.60;;;;;;5070516;28;20166;-57
2022/01/30 04:13:58;;;;;;;14.13;2.15;;;5.90;96.60;;;;;;5070792;28;20063;-57
2022/01/30 04:16:24;;;;;;;12.00;1.92;;;5.80;96.60;;;;;;5065720;28;20063;-57
2022/01/30 04:18:50;;;;;;;12.00;2.03;;;5.80;96.60;;;;;;5064399;28;20515;-57
2022/01/30 04:21:15;;;;;;;13.98;2.03;;;5.80;96.60;;;;;;5069190;28;20111;-57
2022/01/30 04:23:41;;;;;;;15.93;1.90;;;5.80;96.50;;;;;;5066468;28;20031;-57
2022/01/30 04:26:06;;;;;;;14.98;2.45;;;5.80;96.40;;;;;;5066348;28;20071;-57
2022/01/30 04:28:32;;;;;;;11.70;2.83;;;5.80;96.40;;;;;;5067394;28;20476;-57
2022/01/30 04:30:58;;;;;;;11.00;2.08;;;5.80;96.30;;;;;;5070680;28;20028;-57
2022/01/30 04:33:24;;;;;;;11.30;1.60;;;5.70;96.30;;;;;;5070275;28;20020;-57
2022/01/30 04:35:50;;;;;;;13.95;1.60;;;5.80;96.20;;;;;;5068738;28;20433;-57
2022/01/30 04:38:30;;;;;;;9.98;1.42;;;5.70;96.10;;;;;;5068741;28;20025;-57
2022/01/30 04:41:25;;;;;;;8.90;1.20;;;5.70;96.10;;;;;;5067670;28;20099;-57
2022/01/30 05:05:05;;;;;;;9.27;1.23;;;5.50;95.90;;;;;;5069877;28;20025;-57
2022/01/30 05:07:34;;;;;;;8.32;1.02;;;5.50;95.80;;;;;;5067137;28;20025;-57
2022/01/30 05:10:00;;;;;;;7.72;1.33;;;5.50;95.80;;;;;;5069583;28;20090;-57
2022/01/30 05:12:32;;;;;;;10.18;1.20;;;5.50;95.80;;;;;;5066548;28;20053;-57
2022/01/30 05:14:58;;;;;;;7.38;1.00;;;5.50;95.80;;;;;;5066818;28;20028;-57
2022/01/30 05:17:23;;;;;;;11.18;1.80;;;5.50;95.70;;;;;;5066699;28;20025;-57
2022/01/30 05:19:49;;;;;;;11.15;1.38;;;5.50;95.60;;;;;;5067853;28;20493;-57
2022/01/30 05:22:15;;;;;;;8.18;1.27;;;5.50;95.50;;;;;;5066655;28;20078;-57
2022/01/30 05:24:41;;;;;;;7.85;1.90;;;5.50;95.40;;;;;;5069268;28;20024;-57
2022/01/30 05:27:07;;;;;;;8.65;1.52;;;5.50;95.40;;;;;;5066599;28;20036;-57
2022/01/30 05:29:32;;;;;;;8.13;1.42;;;5.40;95.40;;;;;;5068958;28;20067;-57
2022/01/30 05:31:58;;;;;;;9.98;1.40;;;5.40;95.40;;;;;;5066373;28;20059;-57
2022/01/30 05:34:24;;;;;;;11.88;1.35;;;5.40;95.40;;;;;;5066231;28;20033;-57
2022/01/30 05:36:52;;;;;;;8.05;1.48;;;5.50;95.50;;;;;;5069103;28;20076;-57
2022/01/30 05:39:17;;;;;;;9.10;1.70;;;5.50;95.50;;;;;;5069069;28;20013;-57
2022/01/30 05:41:43;;;;;;;8.95;0.80;;;5.40;95.50;;;;;;5069080;28;20064;-57
2022/01/30 05:44:13;;;;;;;13.50;1.45;;;5.50;95.50;;;;;;5069266;28;20077;-57
2022/01/30 05:46:46;;;;;;;8.73;1.10;;;5.50;95.50;;;;;;5067158;28;20073;-57
2022/01/30 05:49:14;;;;;;;6.63;0.90;;;5.40;95.80;;;;;;5065910;28;20020;-57
2022/01/30 05:51:39;;;;;;;7.35;1.45;;;5.40;95.50;;;;;;5068887;28;20031;-57
2022/01/30 05:54:05;;;;;;;8.05;1.30;;;5.40;95.60;;;;;;5068596;28;20024;-57
2022/01/30 05:56:30;;;;;;;11.38;2.35;;;5.40;95.60;;;;;;5065801;28;20052;-57
2022/01/30 05:58:56;;;;;;;10.70;1.38;;;5.40;95.60;;;;;;5066064;28;20027;-57
2022/01/30 06:01:21;;;;;;;7.50;1.38;;;5.30;95.60;;;;;;5065965;28;20389;-57
2022/01/30 06:03:47;;;;;;;9.07;0.93;;;5.40;95.60;;;;;;5065442;28;20536;-57
2022/01/30 06:06:13;;;;;;;6.53;1.35;;;5.30;95.60;;;;;;5068669;28;20274;-57
2022/01/30 06:11:04;;;;;;;9.00;1.30;;;5.30;95.60;;;;;;5065401;28;20086;-57
2022/01/30 06:13:31;;;;;;;7.10;1.40;;;5.20;95.60;;;;;;5064971;28;20504;-57
2022/01/30 06:15:58;;;;;;;8.35;1.35;;;5.30;95.60;;;;;;5067729;28;20020;-57
2022/01/30 06:18:23;;;;;;;8.57;1.50;;;5.30;95.60;;;;;;5054641;28;20076;-57
2022/01/30 06:20:49;;;;;;;8.18;1.25;;;5.30;95.60;;;;;;5065685;28;20468;-57
2022/01/30 06:23:15;;;;;;;11.20;1.58;;;5.30;95.80;;;;;;5064335;28;20021;-57
2022/01/30 06:25:40;;;;;;;10.93;1.67;;;5.30;95.50;;;;;;5067093;28;20074;-57
2022/01/30 06:28:06;;;;;;;7.00;1.15;;;5.30;95.50;;;;;;5067345;28;20087;-57
2022/01/30 06:30:31;;;;;;;8.35;1.30;;;5.20;95.50;;;;;;5065519;28;20458;-57
2022/01/30 06:32:57;;;;;;;14.18;1.42;;;5.20;95.50;;;;;;5068305;28;20028;-57
2022/01/30 06:35:22;;;;;;;10.93;1.63;;;5.20;95.60;;;;;;5068269;28;20021;-57
2022/01/30 06:37:48;;;;;;;6.68;1.52;;;5.20;95.60;;;;;;5067115;28;20035;-57
2022/01/30 06:40:13;;;;;;;11.13;1.58;;;5.20;95.60;;;;;;5070126;28;20074;-57
2022/01/30 06:42:39;;;;;;;8.15;1.30;;;5.20;95.60;;;;;;5072377;28;20033;-57
2022/01/30 06:45:06;;;;;;;9.13;1.40;;;5.10;95.60;;;;;;5071871;28;20063;-57
2022/01/30 06:47:38;;;;;;;12.32;1.90;;;5.10;95.60;;;;;;5071792;28;20493;-57
2022/01/30 06:50:04;;;;;;;7.82;1.58;;;5.10;95.60;;;;;;5072279;28;20562;-57
2022/01/30 06:52:29;;;;;;;13.52;2.00;;;5.10;95.60;;;;;;5072623;28;20033;-57
2022/01/30 06:54:55;;;;;;;9.88;1.67;;;5.10;95.60;;;;;;5072172;28;20484;-57
2022/01/30 06:57:21;;;;;;;9.43;1.58;;;5.10;95.60;;;;;;5071060;28;20056;-57
2022/01/30 06:59:46;;;;;;;15.38;2.33;;;5.10;95.60;;;;;;5072343;28;20029;-57
2022/01/30 07:02:12;;;;;;;14.65;1.85;;;5.10;95.60;;;;;;5070896;28;20028;-57
2022/01/30 07:04:37;;;;;;;14.20;2.08;;;5.00;95.60;;;;;;5072129;28;20480;-57
2022/01/30 07:07:04;;;;;;;15.00;2.35;;;5.10;95.70;;;;;;5072155;28;20552;-57
2022/01/30 07:09:30;;;;;;;19.25;3.15;;;5.00;95.70;;;;;;5072033;28;20430;-57
2022/01/30 07:11:56;;;;;;;11.55;2.20;;;5.00;95.80;;;;;;5087605;28;20044;-57
2022/01/30 07:14:21;;;;;;;10.60;1.50;;;5.00;95.80;;;;;;5072190;28;20024;-57
2022/01/30 07:16:47;;;;;;;12.80;1.77;;;5.00;95.90;;;;;;5075347;28;20070;-57
2022/01/30 07:19:12;;;;;;;11.70;1.60;;;5.00;95.90;;;;;;5075762;28;20107;-56
2022/01/30 07:21:38;;;;;;;10.63;1.55;;;4.90;95.90;;;;;;5057769;28;20021;-57
2022/01/30 07:24:04;;;;;;;8.60;1.70;;;4.90;96.00;;;;;;5075733;28;20064;-57
2022/01/30 07:26:32;;;;;;;11.38;2.22;;;4.90;96.00;;;;;;5091348;28;20055;-57
2022/01/30 07:28:57;;;;;;;10.38;1.45;;;4.90;96.00;;;;;;5075382;28;20116;-57
2022/01/30 07:31:23;;;;;;;11.13;2.05;;;4.90;96.00;;;;;;5058374;28;20069;-57
2022/01/30 07:33:48;;;;;;;12.38;2.00;;;4.90;96.00;;;;;;5071912;28;20496;-57
2022/01/30 07:36:14;;;;;;;12.77;1.58;;;4.90;96.10;;;;;;5072292;28;20059;-57
2022/01/30 07:38:39;;;;;;;10.15;1.55;;;5.00;96.10;;;;;;5072930;28;20020;-57
2022/01/30 07:41:05;;;;;;;12.43;2.13;;;4.90;96.00;;;;;;5071001;28;20012;-57
2022/01/30 07:43:31;;;;;;;10.05;1.73;;;5.00;96.00;;;;;;5071028;28;20024;-57
2022/01/30 07:45:57;;;;;;;11.63;1.80;;;5.00;96.10;;;;;;5071294;28;20021;-57
2022/01/30 07:48:22;;;;;;;11.77;2.38;;;5.00;96.10;;;;;;5073336;28;20335;-57
2022/01/30 07:50:48;;;;;;;9.32;1.45;;;5.00;96.10;;;;;;5073701;28;20028;-57
2022/01/30 07:53:13;;;;;;;9.80;1.50;;;5.00;96.10;;;;;;5073360;28;20081;-57
2022/01/30 07:55:39;;;;;;;11.40;1.40;;;5.00;96.10;;;;;;5074454;28;20036;-57
2022/01/30 07:58:06;;;;;;;10.60;1.40;;;5.00;96.10;;;;;;5075181;28;20032;-57
2022/01/30 08:00:31;;;;;;;16.33;3.65;;;5.00;96.10;;;;;;5073860;28;20027;-57
2022/01/30 08:02:57;;;;;;;14.88;1.80;;;5.00;96.10;;;;;;5075120;28;20095;-57
2022/01/30 08:05:22;;;;;;;17.42;2.47;;;5.10;96.10;;;;;;5074020;28;20476;-57
2022/01/30 08:07:48;;;;;;;14.80;1.77;;;5.10;96.00;;;;;;5072296;28;20024;-57
2022/01/30 08:10:14;;;;;;;14.77;2.75;;;5.10;96.00;;;;;;5072003;28;20510;-57
2022/01/30 08:12:39;;;;;;;13.30;2.35;;;5.20;96.00;;;;;;5069857;28;20048;-57
2022/01/30 08:15:05;;;;;;;11.77;1.90;;;5.20;96.00;;;;;;5072877;28;20028;-57
2022/01/30 08:17:32;;;;;;;14.63;2.05;;;5.20;95.90;;;;;;5073216;28;20020;-57
2022/01/30 08:19:58;;;;;;;12.05;1.90;;;5.30;95.90;;;;;;5072793;28;20016;-57
2022/01/30 08:22:28;;;;;;;12.90;2.95;;;5.30;95.90;;;;;;5072895;28;20024;-57
2022/01/30 08:24:53;;;;;;;15.93;2.53;;;5.40;95.80;;;;;;5073325;28;20035;-57
2022/01/30 08:27:18;;;;;;;19.05;2.55;;;5.40;95.80;;;;;;5072796;28;20107;-57
2022/01/30 08:29:44;;;;;;;14.75;2.63;;;5.40;95.70;;;;;;5072822;28;20431;-57
2022/01/30 08:32:11;;;;;;;13.32;1.88;;;5.50;95.70;;;;;;5079946;28;20029;-57
2022/01/30 08:34:38;;;;;;;12.80;2.10;;;5.50;95.70;;;;;;5072542;28;20556;-57
2022/01/30 08:37:04;;;;;;;10.75;1.80;;;5.60;95.70;;;;;;5072681;28;20035;-57
2022/01/30 08:39:29;;;;;;;9.18;1.42;;;5.60;95.70;;;;;;5072782;28;20020;-57
2022/01/30 08:41:55;;;;;;;10.35;1.90;;;5.70;95.70;;;;;;5072490;28;20021;-57
2022/01/30 08:44:20;;;;;;;13.30;2.90;;;5.70;95.70;;;;;;5082291;28;20017;-57
2022/01/30 08:46:46;;;;;;;14.95;2.13;;;5.80;95.70;;;;;;5072627;28;20025;-57
2022/01/30 08:49:14;;;;;;;13.52;2.15;;;5.80;95.60;;;;;;5072547;28;20358;-58
2022/01/30 08:51:39;;;;;;;22.77;3.50;;;5.80;95.50;;;;;;5070078;28;20012;-57
2022/01/30 08:54:05;;;;;;;14.55;2.50;;;5.80;95.50;;;;;;5072538;28;20031;-57
2022/01/30 08:56:30;;;;;;;19.05;2.38;;;5.80;95.50;;;;;;5065550;28;20021;-57
2022/01/30 08:58:57;;;;;;;20.15;2.38;;;5.90;95.50;;;;;;5072400;28;20103;-57
2022/01/30 09:01:24;;;;;;;13.30;2.10;;;6.00;95.50;;;;;;5073678;28;20024;-57
2022/01/30 09:03:59;;;;;;;15.20;2.42;;;6.00;95.40;;;;;;5073765;28;20438;-57
2022/01/30 09:06:25;;;;;;;13.85;2.10;;;6.10;95.40;;;;;;5073784;28;20021;-57
2022/01/30 09:08:51;;;;;;;14.50;2.20;;;6.10;95.40;;;;;;5089347;28;20025;-57
2022/01/30 09:11:16;;;;;;;18.77;3.05;;;6.20;95.30;;;;;;5073329;28;20113;-57
2022/01/30 09:13:42;;;;;;;11.25;2.45;;;6.20;95.20;;;;;;5073617;28;20040;-57
2022/01/30 09:16:07;;;;;;;12.02;2.20;;;6.30;95.20;;;;;;5073591;28;20446;-57
2022/01/30 09:18:37;;;;;;;14.20;2.78;;;6.40;95.20;;;;;;5073613;28;20036;-57
2022/01/30 09:21:04;;;;;;;;;;;6.50;95.00;;;;;;5073420;28;20045;-57
2022/01/30 09:23:29;;;;;;;14.90;2.70;;;6.60;95.00;;;;;;5068215;28;19915;-57
2022/01/30 09:25:55;;;;;;;13.45;1.88;;;6.70;95.00;;;;;;5071386;28;20025;-57
2022/01/30 09:28:20;;;;;;;12.57;2.10;;;6.80;94.80;;;;;;5071815;28;20024;-57
2022/01/30 09:30:46;;;;;;;12.63;2.72;;;6.90;94.70;;;;;;5071490;28;20471;-57
2022/01/30 09:33:12;;;;;;;18.02;3.83;;;6.90;94.50;;;;;;5071664;28;20743;-57
2022/01/30 09:35:37;;;;;;;15.38;2.72;;;6.90;94.30;;;;;;5071514;28;20036;-57
2022/01/30 09:38:03;;;;;;;15.27;2.90;;;6.90;94.20;;;;;;5070820;28;20031;-57
2022/01/30 09:40:29;;;;;;;11.50;2.05;;;7.00;94.30;;;;;;5071212;28;20021;-57
2022/01/30 09:42:56;;;;;;;16.42;2.97;;;7.00;94.30;;;;;;5080297;28;20029;-57
2022/01/30 09:45:23;;;;;;;17.55;2.55;;;7.00;94.30;;;;;;5071339;28;20094;-57
2022/01/30 09:47:49;;;;;;;17.35;2.75;;;7.00;94.30;;;;;;5068991;28;20070;-57
2022/01/30 09:50:17;;;;;;;22.55;4.20;;;7.00;94.30;;;;;;5071576;28;20032;-57
2022/01/30 09:52:43;;;;;;;12.13;3.15;;;7.10;94.20;;;;;;5071312;28;20024;-57
2022/01/30 09:55:09;;;;;;;20.40;3.25;;;7.20;94.20;;;;;;5070985;28;20507;-57
2022/01/30 09:57:36;;;;;;;19.13;4.78;;;7.30;94.00;;;;;;5071422;28;20020;-57
2022/01/30 10:00:04;;;;;;;15.82;2.63;;;7.50;93.80;;;;;;5071482;28;20096;-57
2022/01/30 10:02:30;;;;;;;14.25;3.50;;;7.70;93.60;;;;;;5084769;28;20461;-57
2022/01/30 10:04:55;;;;;;;16.85;2.80;;;7.90;93.40;;;;;;5072834;28;20100;-57
2022/01/30 10:07:25;;;;;;;17.38;2.97;;;8.10;93.20;;;;;;5072889;28;20089;-57
2022/01/30 10:09:51;;;;;;;13.10;2.60;;;8.30;93.00;;;;;;5071353;28;20048;-57
2022/01/30 10:12:22;;;;;;;18.30;3.25;;;8.60;92.80;;;;;;5072535;28;20087;-57
2022/01/30 10:15:06;;;;;;;14.45;3.13;;;8.80;92.30;;;;;;5072758;28;20048;-57
2022/01/30 10:17:38;;;;;;;15.52;3.05;;;9.00;92.20;;;;;;5072720;28;20024;-57
2022/01/30 10:20:12;;;;;;;19.10;4.05;;;9.50;92.20;;;;;;5071447;28;20063;-57
2022/01/30 10:23:09;;;;;;;18.48;3.97;;;9.70;91.20;;;;;;5072681;28;20036;-57
2022/01/30 10:25:47;;;;;;;15.73;3.38;;;9.90;90.90;;;;;;5072350;28;20060;-58
2022/01/30 10:28:18;;;;;;;17.50;3.22;;;10.40;90.40;;;;;;5071395;28;20024;-58
2022/01/30 10:30:53;;;;;;;17.52;3.25;;;10.70;88.00;;;;;;5071214;28;20136;-57
2022/01/30 10:33:21;;;;;;;20.42;4.15;;;10.50;86.10;;;;;;5069905;28;20021;-58
2022/01/30 10:35:52;;;;;;;16.48;3.70;;;10.30;85.50;;;;;;5070619;28;20435;-58
2022/01/30 10:38:35;;;;;;;17.67;3.15;;;10.30;85.90;;;;;;5070807;28;20421;-58
2022/01/30 10:44:05;;;;;;;19.83;3.28;;;10.10;84.20;;;;;;5072252;28;20032;-58
2022/01/30 10:46:44;;;;;;;21.15;4.20;;;10.50;84.60;;;;;;5073057;28;20039;-57
2022/01/30 10:49:17;;;;;;;19.65;3.67;;;10.80;82.50;;;;;;5102250;28;20484;-58
2022/01/30 10:52:00;;;;;;;20.80;4.25;;;10.70;81.60;;;;;;5075135;28;20035;-58
2022/01/30 10:54:39;;;;;;;14.23;3.33;;;10.80;81.70;;;;;;5076385;28;20384;-57
2022/01/30 10:57:11;;;;;;;14.52;3.25;;;10.90;82.10;;;;;;5075678;28;20060;-57
2022/01/30 10:59:43;;;;;;;13.20;3.10;;;11.20;81.70;;;;;;5074638;28;20021;-58
2022/01/30 11:02:15;;;;;;;13.02;2.90;;;12.00;81.60;;;;;;5074636;28;20028;-58
2022/01/30 11:04:47;;;;;;;13.02;3.28;;;13.20;79.50;;;;;;5075343;28;20027;-58
2022/01/30 11:07:16;;;;;;;17.50;4.15;;;14.50;75.30;;;;;;5074872;28;20020;-58
2022/01/30 11:09:55;;;;;;;14.55;3.75;;;15.20;70.90;;;;;;5076012;28;20048;-58
2022/01/30 11:12:31;;;;;;;17.85;3.70;;;15.30;68.30;;;;;;5075550;28;20036;-58
2022/01/30 11:15:36;;;;;;;12.73;3.60;;;16.00;64.80;;;;;;5075895;28;20473;-58
2022/01/30 11:17:52;;;;;;;17.05;3.70;;;17.00;62.30;;;;;;5074300;28;20041;-58
2022/01/30 11:20:18;;;;;;;16.17;3.70;;;16.90;60.70;;;;;;5074066;28;20102;-58
2022/01/30 11:22:48;;;;;;;19.30;4.20;;;16.70;61.10;;;;;;5089590;28;20027;-58
2022/01/30 11:25:18;;;;;;;12.73;3.45;;;17.00;60.50;;;;;;5074289;28;20118;-58
2022/01/30 11:27:46;;;;;;;14.95;3.88;;;16.80;58.40;;;;;;5073416;28;20040;-58
2022/01/30 11:30:14;;;;;;;17.15;3.28;;;16.60;58.10;;;;;;5074545;28;20021;-58
2022/01/30 11:32:40;;;;;;;17.42;3.90;;;16.10;58.70;;;;;;5075576;28;20465;-58
2022/01/30 11:35:08;;;;;;;14.43;3.95;;;15.50;58.70;;;;;;5075469;28;20021;-58
2022/01/30 11:37:39;;;;;;;16.40;3.65;;;14.90;59.90;;;;;;5075457;28;20115;-58
2022/01/30 11:40:16;;;;;;;18.40;3.22;;;14.50;61.60;;;;;;5071385;28;20029;-58
2022/01/30 11:42:49;;;;;;;15.40;4.68;;;15.20;62.70;;;;;;5073946;28;20021;-58
2022/01/30 11:45:20;;;;;;;19.75;4.70;;;16.40;59.50;;;;;;5075344;28;20067;-58
2022/01/30 11:48:11;;;;;;;15.63;3.95;;;18.10;56.50;;;;;;5075287;28;20021;-59
2022/01/30 11:50:37;;;;;;;13.43;3.10;;;19.50;53.70;;;;;;5066343;28;20020;-59
2022/01/30 11:53:10;;;;;;;15.25;4.00;;;19.80;51.60;;;;;;5072945;28;20033;-58
2022/01/30 11:55:39;;;;;;;12.93;3.17;;;19.30;51.80;;;;;;5077871;28;20048;-58
2022/01/30 11:58:05;;;;;;;15.27;3.78;;;18.80;52.40;;;;;;5070279;28;20029;-58
2022/01/30 12:00:37;;;;;;;20.27;4.00;;;17.90;52.60;;;;;;5061988;28;20035;-58
2022/01/30 12:03:26;;;;;;;22.95;4.65;;;17.70;53.80;;;;;;5074411;28;20031;-58
2022/01/30 12:05:54;;;;;;;12.55;3.00;;;18.30;52.30;;;;;;5072626;28;20025;-58
2022/01/30 12:08:44;;;;;;;15.93;4.07;;;17.60;52.60;;;;;;5072837;28;20040;-58
2022/01/30 12:11:35;;;;;;;14.85;3.95;;;16.80;53.50;;;;;;5071534;28;20078;-58
2022/01/30 12:14:31;;;;;;;14.40;3.75;;;16.20;54.40;;;;;;5069970;28;20413;-58
2022/01/30 12:17:02;;;;;;;17.15;3.83;;;17.20;55.20;;;;;;5070938;28;20021;-58
2022/01/30 12:19:31;;;;;;;17.00;3.78;;;19.30;51.80;;;;;;5068889;28;20051;-59
2022/01/30 12:21:59;;;;;;;12.60;3.75;;;20.90;48.20;;;;;;5072401;28;20129;-58
2022/01/30 12:24:32;;;;;;;19.37;5.40;;;22.00;46.10;;;;;;5072663;28;20082;-58
2022/01/30 12:27:02;;;;;;;15.02;3.60;;;21.40;43.90;;;;;;5072558;28;20461;-58
2022/01/30 12:29:40;;;;;;;18.63;3.38;;;20.40;45.20;;;;;;5072306;28;20024;-58
2022/01/30 12:32:24;;;;;;;17.20;3.67;;;20.20;46.40;;;;;;5071140;28;20020;-58
2022/01/30 12:34:55;;;;;;;14.80;3.20;;;21.30;45.10;;;;;;5073705;28;20021;-59
2022/01/30 12:37:26;;;;;;;14.95;4.13;;;22.40;42.60;;;;;;5072668;28;20055;-58
2022/01/30 12:39:53;;;;;;;19.38;3.75;;;23.50;41.60;;;;;;5073323;28;20028;-59
2022/01/30 12:42:20;;;;;;;13.93;2.90;;;24.40;40.40;;;;;;5067540;28;20477;-59
2022/01/30 12:44:47;;;;;;;16.83;3.55;;;24.70;39.90;;;;;;5063682;28;20036;-58
2022/01/30 12:47:13;;;;;;;16.48;4.40;;;23.90;40.20;;;;;;5073193;28;20032;-59
2022/01/30 12:49:55;;;;;;;15.02;3.95;;;22.70;40.70;;;;;;5068859;28;20112;-58
2022/01/30 12:52:35;;;;;;;14.27;3.95;;;21.40;42.50;;;;;;5069625;28;20030;-58
2022/01/30 12:55:08;;;;;;;14.98;3.90;;;20.30;44.70;;;;;;5069726;28;20028;-58
2022/01/30 12:57:35;;;;;;;17.27;4.03;;;20.70;45.30;;;;;;5072396;28;20095;-59
2022/01/30 13:00:02;;;;;;;13.88;4.05;;;21.80;43.20;;;;;;5056943;28;20032;-59
2022/01/30 13:02:29;;;;;;;14.23;4.13;;;22.90;42.20;;;;;;5073133;28;20103;-59
2022/01/30 13:05:09;;;;;;;17.20;4.75;;;23.80;40.60;;;;;;5062172;28;20041;-59
2022/01/30 13:07:36;;;;;;;20.35;4.65;;;24.70;39.70;;;;;;5069854;28;20039;-59
2022/01/30 13:10:06;;;;;;;14.88;3.95;;;25.10;37.30;;;;;;5062692;28;20046;-59
2022/01/30 13:12:32;;;;;;;17.33;4.18;;;24.20;37.30;;;;;;5062931;28;20123;-59
2022/01/30 13:14:58;;;;;;;16.67;4.05;;;22.80;38.20;;;;;;5069413;28;20495;-59
2022/01/30 13:17:28;;;;;;;17.17;4.45;;;21.40;40.00;;;;;;5072492;28;20024;-59
2022/01/30 13:19:54;;;;;;;13.65;4.30;;;20.10;41.60;;;;;;5070161;28;20408;-58
2022/01/30 13:22:40;;;;;;;17.17;3.95;;;19.20;42.90;;;;;;5059405;28;20024;-58
2022/01/30 13:25:16;;;;;;;19.02;4.45;;;18.50;44.00;;;;;;5060272;28;20481;-58
2022/01/30 13:27:48;;;;;;;13.82;4.18;;;18.00;45.20;;;;;;5068760;28;20044;-58
2022/01/30 13:30:24;;;;;;;18.05;3.85;;;18.70;45.50;;;;;;5073135;28;20404;-58
2022/01/30 13:32:51;;;;;;;16.08;4.22;;;20.00;44.30;;;;;;5062328;28;20036;-59
2022/01/30 13:35:20;;;;;;;14.77;3.70;;;21.40;42.40;;;;;;5066778;28;20077;-59
2022/01/30 13:37:46;;;;;;;11.52;3.50;;;22.50;40.90;;;;;;5055871;28;20108;-59
2022/01/30 13:40:19;;;;;;;16.42;3.63;;;23.40;39.70;;;;;;5067373;28;20620;-59
2022/01/30 13:43:04;;;;;;;13.55;4.22;;;24.00;38.30;;;;;;5045577;28;20507;-59
2022/01/30 13:48:09;;;;;;;18.73;3.92;;;24.40;37.00;;;;;;5056407;28;20060;-59
2022/01/30 13:50:54;;;;;;;15.40;4.18;;;23.50;36.40;;;;;;5072670;28;20074;-59